sensor_id;sensor_type;location;lat;lon;timestamp;P1;durP1;ratioP1;P2;durP2;ratioP2
17700;SDS011;8969;48.576;12.580;2023-05-21T00:00:58;1.20;;;0.53;;
17700;SDS011;8969;48.576;12.580;2023-05-21T00:03:28;2.87;;;0.63;;
17700;SDS011;8969;48.576;12.580;2023-05-21T00:05:58;0.20;;;0.20;;
17700;SDS011;8969;48.576;12.580;2023-05-21T00:08:29;1.27;;;0.60;;
17700;SDS011;8969;48.576;12.580;2023-05-21T00:10:57;0.23;;;0.23;;
17700;SDS011;8969;48.576;12.580;2023-05-21T00:13:27;0.20;;;0.20;;
17700;SDS011;8969;48.576;12.580;2023-05-21T00:15:55;0.10;;;0.10;;
17700;SDS011;8969;48.576;12.580;2023-05-21T00:18:23;2.43;;;0.23;;
17700;SDS011;8969;48.576;12.580;2023-05-21T00:20:51;0.63;;;0.53;;
17700;SDS011;8969;48.576;12.580;2023-05-21T00:23:21;1.70;;;0.10;;
17700;SDS011;8969;48.576;12.580;2023-05-21T00:25:51;0.10;;;0.10;;
17700;SDS011;8969;48.576;12.580;2023-05-21T00:28:19;0.23;;;0.23;;
17700;SDS011;8969;48.576;12.580;2023-05-21T00:30:48;0.10;;;0.10;;
17700;SDS011;8969;48.576;12.580;2023-05-21T00:33:17;0.50;;;0.30;;
17700;SDS011;8969;48.576;12.580;2023-05-21T00:35:47;1.20;;;0.50;;
17700;SDS011;8969;48.576;12.580;2023-05-21T00:38:16;0.20;;;0.20;;
17700;SDS011;8969;48.576;12.580;2023-05-21T00:40:45;0.13;;;0.13;;
17700;SDS011;8969;48.576;12.580;2023-05-21T00:43:15;0.10;;;0.10;;
17700;SDS011;8969;48.576;12.580;2023-05-21T00:45:42;0.00;;;0.00;;
17700;SDS011;8969;48.576;12.580;2023-05-21T00:48:12;0.00;;;0.00;;
17700;SDS011;8969;48.576;12.580;2023-05-21T00:50:41;0.10;;;0.10;;
17700;SDS011;8969;48.576;12.580;2023-05-21T00:53:10;0.10;;;0.10;;
17700;SDS011;8969;48.576;12.580;2023-05-21T00:55:40;2.47;;;0.83;;
17700;SDS011;8969;48.576;12.580;2023-05-21T00:58:10;0.00;;;0.00;;
17700;SDS011;8969;48.576;12.580;2023-05-21T01:00:39;0.07;;;0.07;;
17700;SDS011;8969;48.576;12.580;2023-05-21T01:03:07;0.50;;;0.50;;
17700;SDS011;8969;48.576;12.580;2023-05-21T01:05:36;0.37;;;0.37;;
17700;SDS011;8969;48.576;12.580;2023-05-21T01:08:04;0.10;;;0.10;;
17700;SDS011;8969;48.576;12.580;2023-05-21T01:10:32;6.53;;;1.37;;
17700;SDS011;8969;48.576;12.580;2023-05-21T01:13:03;0.10;;;0.10;;
17700;SDS011;8969;48.576;12.580;2023-05-21T01:15:33;0.00;;;0.00;;
17700;SDS011;8969;48.576;12.580;2023-05-21T01:18:04;0.73;;;0.37;;
17700;SDS011;8969;48.576;12.580;2023-05-21T01:20:33;0.20;;;0.20;;
17700;SDS011;8969;48.576;12.580;2023-05-21T01:23:05;0.53;;;0.53;;
17700;SDS011;8969;48.576;12.580;2023-05-21T01:25:34;0.20;;;0.20;;
17700;SDS011;8969;48.576;12.580;2023-05-21T01:28:04;1.00;;;0.70;;
17700;SDS011;8969;48.576;12.580;2023-05-21T01:30:33;0.77;;;0.47;;
17700;SDS011;8969;48.576;12.580;2023-05-21T01:33:03;0.20;;;0.17;;
17700;SDS011;8969;48.576;12.580;2023-05-21T01:35:40;0.53;;;0.53;;
17700;SDS011;8969;48.576;12.580;2023-05-21T01:38:16;0.30;;;0.30;;
17700;SDS011;8969;48.576;12.580;2023-05-21T01:40:52;0.30;;;0.30;;
17700;SDS011;8969;48.576;12.580;2023-05-21T01:43:24;0.20;;;0.20;;
17700;SDS011;8969;48.576;12.580;2023-05-21T01:45:56;0.47;;;0.47;;
17700;SDS011;8969;48.576;12.580;2023-05-21T01:48:31;0.53;;;0.53;;
17700;SDS011;8969;48.576;12.580;2023-05-21T01:51:02;0.60;;;0.57;;
17700;SDS011;8969;48.576;12.580;2023-05-21T01:53:34;0.40;;;0.40;;
17700;SDS011;8969;48.576;12.580;2023-05-21T01:56:04;0.77;;;0.50;;
17700;SDS011;8969;48.576;12.580;2023-05-21T01:58:37;0.70;;;0.70;;
17700;SDS011;8969;48.576;12.580;2023-05-21T02:01:05;0.80;;;0.60;;
17700;SDS011;8969;48.576;12.580;2023-05-21T02:03:34;0.00;;;0.00;;
17700;SDS011;8969;48.576;12.580;2023-05-21T02:06:03;1.70;;;0.60;;
17700;SDS011;8969;48.576;12.580;2023-05-21T02:08:31;0.30;;;0.30;;
17700;SDS011;8969;48.576;12.580;2023-05-21T02:11:01;0.40;;;0.40;;
17700;SDS011;8969;48.576;12.580;2023-05-21T02:13:29;0.40;;;0.27;;
17700;SDS011;8969;48.576;12.580;2023-05-21T02:15:58;0.20;;;0.20;;
17700;SDS011;8969;48.576;12.580;2023-05-21T02:18:51;0.20;;;0.20;;
17700;SDS011;8969;48.576;12.580;2023-05-21T02:21:24;0.10;;;0.10;;
17700;SDS011;8969;48.576;12.580;2023-05-21T02:23:52;0.53;;;0.53;;
17700;SDS011;8969;48.576;12.580;2023-05-21T02:26:22;0.03;;;0.03;;
17700;SDS011;8969;48.576;12.580;2023-05-21T02:28:51;0.43;;;0.43;;
17700;SDS011;8969;48.576;12.580;2023-05-21T02:31:19;0.50;;;0.37;;
17700;SDS011;8969;48.576;12.580;2023-05-21T02:33:47;1.40;;;0.43;;
17700;SDS011;8969;48.576;12.580;2023-05-21T02:36:16;2.03;;;0.83;;
17700;SDS011;8969;48.576;12.580;2023-05-21T02:38:44;3.60;;;0.77;;
17700;SDS011;8969;48.576;12.580;2023-05-21T02:41:13;0.67;;;0.67;;
17700;SDS011;8969;48.576;12.580;2023-05-21T02:43:43;0.77;;;0.63;;
17700;SDS011;8969;48.576;12.580;2023-05-21T02:46:12;0.20;;;0.20;;
17700;SDS011;8969;48.576;12.580;2023-05-21T02:48:40;1.33;;;0.50;;
17700;SDS011;8969;48.576;12.580;2023-05-21T02:51:09;0.57;;;0.57;;
17700;SDS011;8969;48.576;12.580;2023-05-21T02:53:37;0.43;;;0.37;;
17700;SDS011;8969;48.576;12.580;2023-05-21T02:56:06;4.47;;;1.97;;
17700;SDS011;8969;48.576;12.580;2023-05-21T02:58:34;0.50;;;0.50;;
17700;SDS011;8969;48.576;12.580;2023-05-21T03:01:04;0.57;;;0.57;;
17700;SDS011;8969;48.576;12.580;2023-05-21T03:03:32;0.27;;;0.27;;
17700;SDS011;8969;48.576;12.580;2023-05-21T03:06:01;0.53;;;0.53;;
17700;SDS011;8969;48.576;12.580;2023-05-21T03:08:29;0.83;;;0.83;;
17700;SDS011;8969;48.576;12.580;2023-05-21T03:10:58;0.10;;;0.10;;
17700;SDS011;8969;48.576;12.580;2023-05-21T03:13:26;1.03;;;0.50;;
17700;SDS011;8969;48.576;12.580;2023-05-21T03:15:55;0.20;;;0.20;;
17700;SDS011;8969;48.576;12.580;2023-05-21T03:18:24;0.40;;;0.40;;
17700;SDS011;8969;48.576;12.580;2023-05-21T03:20:52;1.03;;;0.83;;
17700;SDS011;8969;48.576;12.580;2023-05-21T03:23:21;0.10;;;0.10;;
17700;SDS011;8969;48.576;12.580;2023-05-21T03:25:49;1.53;;;0.50;;
17700;SDS011;8969;48.576;12.580;2023-05-21T03:28:20;2.10;;;0.80;;
17700;SDS011;8969;48.576;12.580;2023-05-21T03:30:49;0.63;;;0.50;;
17700;SDS011;8969;48.576;12.580;2023-05-21T03:33:37;0.20;;;0.20;;
17700;SDS011;8969;48.576;12.580;2023-05-21T03:36:17;1.07;;;0.67;;
17700;SDS011;8969;48.576;12.580;2023-05-21T03:38:46;0.13;;;0.13;;
17700;SDS011;8969;48.576;12.580;2023-05-21T03:41:14;0.60;;;0.60;;
17700;SDS011;8969;48.576;12.580;2023-05-21T03:43:47;0.83;;;0.83;;
17700;SDS011;8969;48.576;12.580;2023-05-21T03:46:15;0.50;;;0.40;;
17700;SDS011;8969;48.576;12.580;2023-05-21T03:49:14;4.37;;;0.77;;
17700;SDS011;8969;48.576;12.580;2023-05-21T03:51:43;0.40;;;0.40;;
17700;SDS011;8969;48.576;12.580;2023-05-21T03:54:15;1.17;;;0.73;;
17700;SDS011;8969;48.576;12.580;2023-05-21T03:56:44;0.57;;;0.40;;
17700;SDS011;8969;48.576;12.580;2023-05-21T03:59:12;0.97;;;0.73;;
17700;SDS011;8969;48.576;12.580;2023-05-21T04:01:43;0.73;;;0.37;;
17700;SDS011;8969;48.576;12.580;2023-05-21T04:04:16;0.33;;;0.30;;
17700;SDS011;8969;48.576;12.580;2023-05-21T04:06:44;6.90;;;1.13;;
17700;SDS011;8969;48.576;12.580;2023-05-21T04:09:13;0.90;;;0.83;;
17700;SDS011;8969;48.576;12.580;2023-05-21T04:11:41;0.47;;;0.47;;
17700;SDS011;8969;48.576;12.580;2023-05-21T04:14:09;0.20;;;0.20;;
17700;SDS011;8969;48.576;12.580;2023-05-21T04:16:38;0.73;;;0.50;;
17700;SDS011;8969;48.576;12.580;2023-05-21T04:19:09;1.53;;;0.70;;
17700;SDS011;8969;48.576;12.580;2023-05-21T04:21:40;0.57;;;0.57;;
17700;SDS011;8969;48.576;12.580;2023-05-21T04:24:12;0.63;;;0.63;;
17700;SDS011;8969;48.576;12.580;2023-05-21T04:26:47;4.73;;;1.53;;
17700;SDS011;8969;48.576;12.580;2023-05-21T04:29:16;0.20;;;0.20;;
17700;SDS011;8969;48.576;12.580;2023-05-21T04:31:47;0.43;;;0.43;;
17700;SDS011;8969;48.576;12.580;2023-05-21T04:34:16;0.40;;;0.40;;
17700;SDS011;8969;48.576;12.580;2023-05-21T04:36:46;2.63;;;0.40;;
17700;SDS011;8969;48.576;12.580;2023-05-21T04:39:15;0.70;;;0.70;;
17700;SDS011;8969;48.576;12.580;2023-05-21T04:41:44;0.50;;;0.50;;
17700;SDS011;8969;48.576;12.580;2023-05-21T04:44:13;0.40;;;0.30;;
17700;SDS011;8969;48.576;12.580;2023-05-21T04:46:43;3.03;;;1.23;;
17700;SDS011;8969;48.576;12.580;2023-05-21T04:49:12;1.20;;;0.70;;
17700;SDS011;8969;48.576;12.580;2023-05-21T04:51:41;0.70;;;0.70;;
17700;SDS011;8969;48.576;12.580;2023-05-21T04:54:10;0.90;;;0.47;;
17700;SDS011;8969;48.576;12.580;2023-05-21T04:56:40;0.90;;;0.40;;
17700;SDS011;8969;48.576;12.580;2023-05-21T04:59:08;0.37;;;0.33;;
17700;SDS011;8969;48.576;12.580;2023-05-21T05:01:36;0.37;;;0.37;;
17700;SDS011;8969;48.576;12.580;2023-05-21T05:04:04;1.13;;;0.80;;
17700;SDS011;8969;48.576;12.580;2023-05-21T05:06:34;0.20;;;0.20;;
17700;SDS011;8969;48.576;12.580;2023-05-21T05:09:03;1.20;;;1.10;;
17700;SDS011;8969;48.576;12.580;2023-05-21T05:11:34;1.20;;;0.93;;
17700;SDS011;8969;48.576;12.580;2023-05-21T05:14:03;1.00;;;0.60;;
17700;SDS011;8969;48.576;12.580;2023-05-21T05:16:32;4.17;;;0.77;;
17700;SDS011;8969;48.576;12.580;2023-05-21T05:19:01;1.27;;;0.57;;
17700;SDS011;8969;48.576;12.580;2023-05-21T05:21:30;0.37;;;0.37;;
17700;SDS011;8969;48.576;12.580;2023-05-21T05:23:59;1.07;;;0.83;;
17700;SDS011;8969;48.576;12.580;2023-05-21T05:26:30;0.43;;;0.43;;
17700;SDS011;8969;48.576;12.580;2023-05-21T05:29:00;0.53;;;0.53;;
17700;SDS011;8969;48.576;12.580;2023-05-21T05:31:53;0.17;;;0.17;;
17700;SDS011;8969;48.576;12.580;2023-05-21T05:34:21;0.20;;;0.20;;
17700;SDS011;8969;48.576;12.580;2023-05-21T05:36:49;2.63;;;1.07;;
17700;SDS011;8969;48.576;12.580;2023-05-21T05:39:17;0.10;;;0.10;;
17700;SDS011;8969;48.576;12.580;2023-05-21T05:41:46;1.13;;;0.80;;
17700;SDS011;8969;48.576;12.580;2023-05-21T05:44:17;0.63;;;0.50;;
17700;SDS011;8969;48.576;12.580;2023-05-21T05:46:46;0.87;;;0.87;;
17700;SDS011;8969;48.576;12.580;2023-05-21T05:49:15;0.30;;;0.30;;
17700;SDS011;8969;48.576;12.580;2023-05-21T05:51:44;0.50;;;0.50;;
17700;SDS011;8969;48.576;12.580;2023-05-21T05:54:13;0.70;;;0.57;;
17700;SDS011;8969;48.576;12.580;2023-05-21T05:56:45;0.30;;;0.30;;
17700;SDS011;8969;48.576;12.580;2023-05-21T05:59:13;0.33;;;0.33;;
17700;SDS011;8969;48.576;12.580;2023-05-21T06:01:48;0.60;;;0.60;;
17700;SDS011;8969;48.576;12.580;2023-05-21T06:04:19;1.27;;;0.80;;
17700;SDS011;8969;48.576;12.580;2023-05-21T06:06:48;0.17;;;0.17;;
17700;SDS011;8969;48.576;12.580;2023-05-21T06:09:16;0.67;;;0.67;;
17700;SDS011;8969;48.576;12.580;2023-05-21T06:11:47;0.63;;;0.63;;
17700;SDS011;8969;48.576;12.580;2023-05-21T06:14:17;0.50;;;0.50;;
17700;SDS011;8969;48.576;12.580;2023-05-21T06:16:48;0.60;;;0.60;;
17700;SDS011;8969;48.576;12.580;2023-05-21T06:19:17;1.97;;;0.97;;
17700;SDS011;8969;48.576;12.580;2023-05-21T06:21:47;0.60;;;0.37;;
17700;SDS011;8969;48.576;12.580;2023-05-21T06:24:15;1.60;;;0.70;;
17700;SDS011;8969;48.576;12.580;2023-05-21T06:26:44;1.00;;;0.83;;
17700;SDS011;8969;48.576;12.580;2023-05-21T06:29:13;0.30;;;0.30;;
17700;SDS011;8969;48.576;12.580;2023-05-21T06:31:44;1.17;;;0.83;;
17700;SDS011;8969;48.576;12.580;2023-05-21T06:34:14;0.30;;;0.30;;
17700;SDS011;8969;48.576;12.580;2023-05-21T06:36:42;0.70;;;0.70;;
17700;SDS011;8969;48.576;12.580;2023-05-21T06:39:11;2.27;;;1.17;;
17700;SDS011;8969;48.576;12.580;2023-05-21T06:41:40;0.33;;;0.33;;
17700;SDS011;8969;48.576;12.580;2023-05-21T06:44:27;0.73;;;0.73;;
17700;SDS011;8969;48.576;12.580;2023-05-21T06:47:06;0.30;;;0.30;;
17700;SDS011;8969;48.576;12.580;2023-05-21T06:49:36;0.77;;;0.40;;
17700;SDS011;8969;48.576;12.580;2023-05-21T06:52:05;1.20;;;0.77;;
17700;SDS011;8969;48.576;12.580;2023-05-21T06:54:34;0.83;;;0.67;;
17700;SDS011;8969;48.576;12.580;2023-05-21T06:57:03;1.50;;;0.67;;
17700;SDS011;8969;48.576;12.580;2023-05-21T06:59:32;0.80;;;0.77;;
17700;SDS011;8969;48.576;12.580;2023-05-21T07:02:02;0.70;;;0.70;;
17700;SDS011;8969;48.576;12.580;2023-05-21T07:04:34;0.60;;;0.60;;
17700;SDS011;8969;48.576;12.580;2023-05-21T07:07:52;2.00;;;0.80;;
17700;SDS011;8969;48.576;12.580;2023-05-21T07:10:46;1.27;;;0.53;;
17700;SDS011;8969;48.576;12.580;2023-05-21T07:13:16;0.97;;;0.80;;
17700;SDS011;8969;48.576;12.580;2023-05-21T07:15:45;0.30;;;0.30;;
17700;SDS011;8969;48.576;12.580;2023-05-21T07:18:14;0.43;;;0.43;;
17700;SDS011;8969;48.576;12.580;2023-05-21T07:20:43;1.17;;;0.50;;
17700;SDS011;8969;48.576;12.580;2023-05-21T07:23:16;0.60;;;0.43;;
17700;SDS011;8969;48.576;12.580;2023-05-21T07:25:44;4.80;;;1.10;;
17700;SDS011;8969;48.576;12.580;2023-05-21T07:28:13;4.40;;;0.50;;
17700;SDS011;8969;48.576;12.580;2023-05-21T07:30:43;0.50;;;0.50;;
17700;SDS011;8969;48.576;12.580;2023-05-21T07:33:16;2.10;;;0.63;;
17700;SDS011;8969;48.576;12.580;2023-05-21T07:35:46;1.20;;;0.93;;
17700;SDS011;8969;48.576;12.580;2023-05-21T07:38:16;0.83;;;0.83;;
17700;SDS011;8969;48.576;12.580;2023-05-21T07:40:45;1.80;;;0.67;;
17700;SDS011;8969;48.576;12.580;2023-05-21T07:43:14;4.63;;;1.03;;
17700;SDS011;8969;48.576;12.580;2023-05-21T07:45:43;0.60;;;0.57;;
17700;SDS011;8969;48.576;12.580;2023-05-21T07:48:12;0.67;;;0.50;;
17700;SDS011;8969;48.576;12.580;2023-05-21T07:50:50;0.90;;;0.83;;
17700;SDS011;8969;48.576;12.580;2023-05-21T07:53:20;1.03;;;0.87;;
17700;SDS011;8969;48.576;12.580;2023-05-21T07:55:49;0.50;;;0.50;;
17700;SDS011;8969;48.576;12.580;2023-05-21T07:58:23;0.57;;;0.57;;
17700;SDS011;8969;48.576;12.580;2023-05-21T08:00:52;2.00;;;0.83;;
17700;SDS011;8969;48.576;12.580;2023-05-21T08:03:20;0.50;;;0.50;;
17700;SDS011;8969;48.576;12.580;2023-05-21T08:05:51;0.40;;;0.40;;
17700;SDS011;8969;48.576;12.580;2023-05-21T08:08:22;0.30;;;0.30;;
17700;SDS011;8969;48.576;12.580;2023-05-21T08:10:52;0.97;;;0.40;;
17700;SDS011;8969;48.576;12.580;2023-05-21T08:13:24;1.07;;;0.83;;
17700;SDS011;8969;48.576;12.580;2023-05-21T08:15:52;0.93;;;0.73;;
17700;SDS011;8969;48.576;12.580;2023-05-21T08:18:22;0.33;;;0.33;;
17700;SDS011;8969;48.576;12.580;2023-05-21T08:20:52;1.70;;;0.80;;
17700;SDS011;8969;48.576;12.580;2023-05-21T08:23:24;0.50;;;0.40;;
17700;SDS011;8969;48.576;12.580;2023-05-21T08:25:55;0.80;;;0.50;;
17700;SDS011;8969;48.576;12.580;2023-05-21T08:28:24;1.17;;;0.50;;
17700;SDS011;8969;48.576;12.580;2023-05-21T08:30:54;1.80;;;0.67;;
17700;SDS011;8969;48.576;12.580;2023-05-21T08:33:29;0.20;;;0.20;;
17700;SDS011;8969;48.576;12.580;2023-05-21T08:35:58;2.17;;;0.93;;
17700;SDS011;8969;48.576;12.580;2023-05-21T08:38:30;2.27;;;1.57;;
17700;SDS011;8969;48.576;12.580;2023-05-21T08:41:10;2.13;;;0.67;;
17700;SDS011;8969;48.576;12.580;2023-05-21T08:43:42;2.13;;;1.00;;
17700;SDS011;8969;48.576;12.580;2023-05-21T08:46:13;1.23;;;1.10;;
17700;SDS011;8969;48.576;12.580;2023-05-21T08:48:43;3.47;;;1.47;;
17700;SDS011;8969;48.576;12.580;2023-05-21T08:51:14;0.70;;;0.50;;
17700;SDS011;8969;48.576;12.580;2023-05-21T08:53:49;1.17;;;0.70;;
17700;SDS011;8969;48.576;12.580;2023-05-21T08:56:19;0.37;;;0.37;;
17700;SDS011;8969;48.576;12.580;2023-05-21T08:58:52;1.93;;;0.50;;
17700;SDS011;8969;48.576;12.580;2023-05-21T09:01:24;4.03;;;1.00;;
17700;SDS011;8969;48.576;12.580;2023-05-21T09:03:59;0.83;;;0.77;;
17700;SDS011;8969;48.576;12.580;2023-05-21T09:06:45;1.40;;;0.37;;
17700;SDS011;8969;48.576;12.580;2023-05-21T09:09:23;1.20;;;0.70;;
17700;SDS011;8969;48.576;12.580;2023-05-21T09:11:53;0.33;;;0.33;;
17700;SDS011;8969;48.576;12.580;2023-05-21T09:14:22;3.63;;;1.43;;
17700;SDS011;8969;48.576;12.580;2023-05-21T09:16:59;0.23;;;0.23;;
17700;SDS011;8969;48.576;12.580;2023-05-21T09:19:30;1.47;;;1.00;;
17700;SDS011;8969;48.576;12.580;2023-05-21T09:22:00;0.67;;;0.63;;
17700;SDS011;8969;48.576;12.580;2023-05-21T09:24:32;1.30;;;0.83;;
17700;SDS011;8969;48.576;12.580;2023-05-21T09:27:05;0.70;;;0.70;;
17700;SDS011;8969;48.576;12.580;2023-05-21T09:29:34;8.33;;;3.40;;
17700;SDS011;8969;48.576;12.580;2023-05-21T09:32:05;1.60;;;1.33;;
17700;SDS011;8969;48.576;12.580;2023-05-21T09:34:37;9.50;;;5.50;;
17700;SDS011;8969;48.576;12.580;2023-05-21T09:37:06;24.10;;;15.53;;
17700;SDS011;8969;48.576;12.580;2023-05-21T09:39:53;10.53;;;7.47;;
17700;SDS011;8969;48.576;12.580;2023-05-21T09:42:22;9.73;;;5.00;;
17700;SDS011;8969;48.576;12.580;2023-05-21T09:44:50;1.67;;;0.80;;
17700;SDS011;8969;48.576;12.580;2023-05-21T09:47:20;1.57;;;0.73;;
17700;SDS011;8969;48.576;12.580;2023-05-21T09:49:48;4.30;;;1.30;;
17700;SDS011;8969;48.576;12.580;2023-05-21T09:52:23;0.30;;;0.30;;
17700;SDS011;8969;48.576;12.580;2023-05-21T09:54:54;0.80;;;0.70;;
17700;SDS011;8969;48.576;12.580;2023-05-21T09:57:23;2.27;;;0.57;;
17700;SDS011;8969;48.576;12.580;2023-05-21T09:59:52;0.40;;;0.40;;
17700;SDS011;8969;48.576;12.580;2023-05-21T10:02:22;0.33;;;0.33;;
17700;SDS011;8969;48.576;12.580;2023-05-21T10:04:52;4.07;;;1.70;;
17700;SDS011;8969;48.576;12.580;2023-05-21T10:07:21;0.87;;;0.83;;
17700;SDS011;8969;48.576;12.580;2023-05-21T10:09:53;0.97;;;0.97;;
17700;SDS011;8969;48.576;12.580;2023-05-21T10:12:23;0.73;;;0.67;;
17700;SDS011;8969;48.576;12.580;2023-05-21T10:14:53;0.97;;;0.90;;
17700;SDS011;8969;48.576;12.580;2023-05-21T10:17:24;0.40;;;0.40;;
17700;SDS011;8969;48.576;12.580;2023-05-21T10:19:54;0.83;;;0.70;;
17700;SDS011;8969;48.576;12.580;2023-05-21T10:22:23;1.00;;;0.53;;
17700;SDS011;8969;48.576;12.580;2023-05-21T10:24:52;2.10;;;0.93;;
17700;SDS011;8969;48.576;12.580;2023-05-21T10:27:21;0.80;;;0.47;;
17700;SDS011;8969;48.576;12.580;2023-05-21T10:29:52;0.97;;;0.53;;
17700;SDS011;8969;48.576;12.580;2023-05-21T10:32:21;0.53;;;0.40;;
17700;SDS011;8969;48.576;12.580;2023-05-21T10:34:50;1.50;;;0.70;;
17700;SDS011;8969;48.576;12.580;2023-05-21T10:37:22;4.22;;;1.30;;
17700;SDS011;8969;48.576;12.580;2023-05-21T10:39:52;1.03;;;0.40;;
17700;SDS011;8969;48.576;12.580;2023-05-21T10:42:20;2.08;;;1.20;;
17700;SDS011;8969;48.576;12.580;2023-05-21T10:44:58;0.20;;;0.20;;
17700;SDS011;8969;48.576;12.580;2023-05-21T10:47:33;0.70;;;0.60;;
17700;SDS011;8969;48.576;12.580;2023-05-21T10:50:12;0.98;;;0.50;;
17700;SDS011;8969;48.576;12.580;2023-05-21T10:52:54;1.90;;;0.63;;
17700;SDS011;8969;48.576;12.580;2023-05-21T10:55:56;1.23;;;0.90;;
17700;SDS011;8969;48.576;12.580;2023-05-21T10:58:31;0.33;;;0.30;;
17700;SDS011;8969;48.576;12.580;2023-05-21T11:01:05;0.30;;;0.30;;
17700;SDS011;8969;48.576;12.580;2023-05-21T11:03:34;0.87;;;0.80;;
17700;SDS011;8969;48.576;12.580;2023-05-21T11:06:04;0.50;;;0.50;;
17700;SDS011;8969;48.576;12.580;2023-05-21T11:08:33;0.70;;;0.65;;
17700;SDS011;8969;48.576;12.580;2023-05-21T11:13:59;0.30;;;0.30;;
17700;SDS011;8969;48.576;12.580;2023-05-21T11:16:32;0.50;;;0.50;;
17700;SDS011;8969;48.576;12.580;2023-05-21T11:19:03;0.83;;;0.50;;
17700;SDS011;8969;48.576;12.580;2023-05-21T11:21:33;0.10;;;0.10;;
17700;SDS011;8969;48.576;12.580;2023-05-21T11:24:03;0.95;;;0.90;;
17700;SDS011;8969;48.576;12.580;2023-05-21T11:29:29;0.40;;;0.20;;
17700;SDS011;8969;48.576;12.580;2023-05-21T11:32:00;0.30;;;0.30;;
17700;SDS011;8969;48.576;12.580;2023-05-21T11:34:35;0.57;;;0.50;;
17700;SDS011;8969;48.576;12.580;2023-05-21T11:37:21;0.40;;;0.40;;
17700;SDS011;8969;48.576;12.580;2023-05-21T11:39:53;0.65;;;0.65;;
17700;SDS011;8969;48.576;12.580;2023-05-21T11:42:28;1.15;;;0.65;;
17700;SDS011;8969;48.576;12.580;2023-05-21T11:44:57;0.60;;;0.60;;
17700;SDS011;8969;48.576;12.580;2023-05-21T11:47:29;0.50;;;0.40;;
17700;SDS011;8969;48.576;12.580;2023-05-21T11:49:58;0.75;;;0.75;;
17700;SDS011;8969;48.576;12.580;2023-05-21T11:52:30;1.15;;;0.88;;
17700;SDS011;8969;48.576;12.580;2023-05-21T11:54:59;0.40;;;0.40;;
17700;SDS011;8969;48.576;12.580;2023-05-21T11:57:30;0.32;;;0.32;;
17700;SDS011;8969;48.576;12.580;2023-05-21T11:59:59;0.43;;;0.30;;
17700;SDS011;8969;48.576;12.580;2023-05-21T12:02:44;0.55;;;0.55;;
17700;SDS011;8969;48.576;12.580;2023-05-21T12:05:13;5.20;;;0.60;;
17700;SDS011;8969;48.576;12.580;2023-05-21T12:07:44;1.48;;;0.45;;
17700;SDS011;8969;48.576;12.580;2023-05-21T12:10:15;0.25;;;0.25;;
17700;SDS011;8969;48.576;12.580;2023-05-21T12:12:45;0.50;;;0.50;;
17700;SDS011;8969;48.576;12.580;2023-05-21T12:15:22;0.28;;;0.28;;
17700;SDS011;8969;48.576;12.580;2023-05-21T12:17:52;0.40;;;0.40;;
17700;SDS011;8969;48.576;12.580;2023-05-21T12:20:21;0.95;;;0.68;;
17700;SDS011;8969;48.576;12.580;2023-05-21T12:22:51;1.52;;;0.52;;
17700;SDS011;8969;48.576;12.580;2023-05-21T12:25:20;0.40;;;0.32;;
17700;SDS011;8969;48.576;12.580;2023-05-21T12:27:50;0.30;;;0.30;;
17700;SDS011;8969;48.576;12.580;2023-05-21T12:30:24;0.20;;;0.20;;
17700;SDS011;8969;48.576;12.580;2023-05-21T12:32:56;1.20;;;0.60;;
17700;SDS011;8969;48.576;12.580;2023-05-21T12:35:28;1.17;;;0.68;;
17700;SDS011;8969;48.576;12.580;2023-05-21T12:37:59;0.40;;;0.40;;
17700;SDS011;8969;48.576;12.580;2023-05-21T12:40:33;2.10;;;1.02;;
17700;SDS011;8969;48.576;12.580;2023-05-21T12:45:59;0.50;;;0.50;;
17700;SDS011;8969;48.576;12.580;2023-05-21T12:48:30;0.35;;;0.22;;
17700;SDS011;8969;48.576;12.580;2023-05-21T12:50:58;0.45;;;0.22;;
17700;SDS011;8969;48.576;12.580;2023-05-21T12:53:35;1.02;;;0.60;;
17700;SDS011;8969;48.576;12.580;2023-05-21T12:56:08;0.10;;;0.10;;
17700;SDS011;8969;48.576;12.580;2023-05-21T12:58:37;1.00;;;0.88;;
17700;SDS011;8969;48.576;12.580;2023-05-21T13:01:06;1.42;;;1.08;;
17700;SDS011;8969;48.576;12.580;2023-05-21T13:03:37;0.13;;;0.13;;
17700;SDS011;8969;48.576;12.580;2023-05-21T13:06:06;0.20;;;0.20;;
17700;SDS011;8969;48.576;12.580;2023-05-21T13:08:36;0.40;;;0.40;;
17700;SDS011;8969;48.576;12.580;2023-05-21T13:11:04;0.73;;;0.73;;
17700;SDS011;8969;48.576;12.580;2023-05-21T13:13:34;0.50;;;0.40;;
17700;SDS011;8969;48.576;12.580;2023-05-21T13:16:02;0.70;;;0.52;;
17700;SDS011;8969;48.576;12.580;2023-05-21T13:18:31;0.95;;;0.43;;
17700;SDS011;8969;48.576;12.580;2023-05-21T13:21:00;0.55;;;0.55;;
17700;SDS011;8969;48.576;12.580;2023-05-21T13:23:30;0.25;;;0.25;;
17700;SDS011;8969;48.576;12.580;2023-05-21T13:25:59;0.93;;;0.73;;
17700;SDS011;8969;48.576;12.580;2023-05-21T13:28:29;0.70;;;0.70;;
17700;SDS011;8969;48.576;12.580;2023-05-21T13:30:58;0.10;;;0.10;;
17700;SDS011;8969;48.576;12.580;2023-05-21T13:33:29;1.05;;;0.88;;
17700;SDS011;8969;48.576;12.580;2023-05-21T13:35:58;0.35;;;0.35;;
17700;SDS011;8969;48.576;12.580;2023-05-21T13:38:28;0.30;;;0.30;;
17700;SDS011;8969;48.576;12.580;2023-05-21T13:40:57;2.83;;;0.55;;
17700;SDS011;8969;48.576;12.580;2023-05-21T13:43:51;1.50;;;0.40;;
17700;SDS011;8969;48.576;12.580;2023-05-21T13:46:19;0.25;;;0.25;;
17700;SDS011;8969;48.576;12.580;2023-05-21T13:48:48;0.30;;;0.30;;
17700;SDS011;8969;48.576;12.580;2023-05-21T13:51:17;0.10;;;0.10;;
17700;SDS011;8969;48.576;12.580;2023-05-21T13:54:05;0.40;;;0.35;;
17700;SDS011;8969;48.576;12.580;2023-05-21T13:56:33;3.65;;;1.02;;
17700;SDS011;8969;48.576;12.580;2023-05-21T13:59:02;1.55;;;0.30;;
17700;SDS011;8969;48.576;12.580;2023-05-21T14:01:30;0.47;;;0.47;;
17700;SDS011;8969;48.576;12.580;2023-05-21T14:03:59;0.65;;;0.40;;
17700;SDS011;8969;48.576;12.580;2023-05-21T14:06:31;3.50;;;1.30;;
17700;SDS011;8969;48.576;12.580;2023-05-21T14:09:00;1.10;;;1.00;;
17700;SDS011;8969;48.576;12.580;2023-05-21T14:11:32;1.40;;;0.60;;
17700;SDS011;8969;48.576;12.580;2023-05-21T14:14:01;1.45;;;0.93;;
17700;SDS011;8969;48.576;12.580;2023-05-21T14:16:30;0.28;;;0.28;;
17700;SDS011;8969;48.576;12.580;2023-05-21T14:18:58;0.70;;;0.50;;
17700;SDS011;8969;48.576;12.580;2023-05-21T14:21:28;0.55;;;0.25;;
17700;SDS011;8969;48.576;12.580;2023-05-21T14:23:58;0.40;;;0.25;;
17700;SDS011;8969;48.576;12.580;2023-05-21T14:26:27;1.08;;;0.45;;
17700;SDS011;8969;48.576;12.580;2023-05-21T14:28:57;0.90;;;0.68;;
17700;SDS011;8969;48.576;12.580;2023-05-21T14:31:27;0.82;;;0.65;;
17700;SDS011;8969;48.576;12.580;2023-05-21T14:33:55;0.20;;;0.20;;
17700;SDS011;8969;48.576;12.580;2023-05-21T14:36:23;0.15;;;0.15;;
17700;SDS011;8969;48.576;12.580;2023-05-21T14:38:53;0.63;;;0.40;;
17700;SDS011;8969;48.576;12.580;2023-05-21T14:41:22;0.90;;;0.55;;
17700;SDS011;8969;48.576;12.580;2023-05-21T14:43:52;1.10;;;0.57;;
17700;SDS011;8969;48.576;12.580;2023-05-21T14:46:22;0.70;;;0.52;;
17700;SDS011;8969;48.576;12.580;2023-05-21T14:48:50;0.70;;;0.52;;
17700;SDS011;8969;48.576;12.580;2023-05-21T14:51:20;1.08;;;0.82;;
17700;SDS011;8969;48.576;12.580;2023-05-21T14:53:49;1.48;;;0.70;;
17700;SDS011;8969;48.576;12.580;2023-05-21T14:56:19;0.22;;;0.22;;
17700;SDS011;8969;48.576;12.580;2023-05-21T14:58:49;0.52;;;0.52;;
17700;SDS011;8969;48.576;12.580;2023-05-21T15:01:19;0.40;;;0.40;;
17700;SDS011;8969;48.576;12.580;2023-05-21T15:03:49;0.70;;;0.30;;
17700;SDS011;8969;48.576;12.580;2023-05-21T15:06:17;0.77;;;0.77;;
17700;SDS011;8969;48.576;12.580;2023-05-21T15:08:46;0.68;;;0.50;;
17700;SDS011;8969;48.576;12.580;2023-05-21T15:11:15;0.52;;;0.22;;
17700;SDS011;8969;48.576;12.580;2023-05-21T15:13:44;1.23;;;0.95;;
17700;SDS011;8969;48.576;12.580;2023-05-21T15:16:13;0.28;;;0.28;;
17700;SDS011;8969;48.576;12.580;2023-05-21T15:18:45;0.28;;;0.20;;